createdAt,value
2023-03-03T00:00:47.534Z,1016.07
2023-03-03T00:01:47.554Z,1016.08
2023-03-03T00:02:47.575Z,1016.05
2023-03-03T00:03:47.678Z,1016.10
2023-03-03T00:04:47.617Z,1016.06
2023-03-03T00:05:47.650Z,1016.07
2023-03-03T00:06:47.659Z,1016.09
2023-03-03T00:07:47.686Z,1016.14
2023-03-03T00:08:47.717Z,1016.15
2023-03-03T00:09:47.722Z,1016.17
2023-03-03T00:10:47.764Z,1016.17
2023-03-03T00:11:47.764Z,1016.18
2023-03-03T00:12:47.786Z,1016.13
2023-03-03T00:13:47.808Z,1016.15
2023-03-03T00:15:30.374Z,1016.12
2023-03-03T00:16:30.395Z,1016.11
2023-03-03T00:17:30.422Z,1016.15
2023-03-03T00:18:30.442Z,1016.13
2023-03-03T00:19:30.459Z,1016.19
2023-03-03T00:20:30.483Z,1016.20
2023-03-03T00:21:30.549Z,1016.15
2023-03-03T00:22:30.523Z,1016.21
2023-03-03T00:23:30.543Z,1016.21
2023-03-03T00:24:30.565Z,1016.18
2023-03-03T00:25:30.586Z,1016.22
2023-03-03T00:26:30.627Z,1016.16
2023-03-03T00:27:30.631Z,1016.15
2023-03-03T00:28:30.650Z,1016.14
2023-03-03T00:29:30.884Z,1016.17
2023-03-03T00:30:30.694Z,1016.17
2023-03-03T00:31:30.793Z,1016.23
2023-03-03T00:32:30.776Z,1016.27
2023-03-03T00:33:30.757Z,1016.18
2023-03-03T00:34:30.780Z,1016.23
2023-03-03T00:35:30.855Z,1016.21
2023-03-03T00:36:30.820Z,1016.19
2023-03-03T00:37:30.845Z,1016.20
2023-03-03T00:38:30.864Z,1016.20
2023-03-03T00:39:30.882Z,1016.20
2023-03-03T00:40:30.906Z,1016.26
2023-03-03T00:41:30.926Z,1016.29
2023-03-03T00:42:30.965Z,1016.30
2023-03-03T00:43:30.978Z,1016.26
2023-03-03T00:44:30.989Z,1016.23
2023-03-03T00:45:31.030Z,1016.30
2023-03-03T00:46:31.108Z,1016.31
2023-03-03T00:47:31.976Z,1016.35
2023-03-03T00:48:31.074Z,1016.38
2023-03-03T00:49:31.093Z,1016.40
2023-03-03T00:50:31.116Z,1016.40
2023-03-03T00:51:31.136Z,1016.40
2023-03-03T00:52:31.173Z,1016.37
2023-03-03T00:53:31.199Z,1016.31
2023-03-03T00:54:31.207Z,1016.39
2023-03-03T00:55:31.219Z,1016.35
2023-03-03T00:56:31.242Z,1016.33
2023-03-03T00:57:31.260Z,1016.35
2023-03-03T00:58:31.299Z,1016.38
2023-03-03T00:59:31.304Z,1016.36
2023-03-03T01:00:33.698Z,1016.36
2023-03-03T01:01:31.425Z,1016.31
2023-03-03T01:02:31.459Z,1016.35
2023-03-03T01:03:31.387Z,1016.29
2023-03-03T01:04:31.409Z,1016.32
2023-03-03T01:05:31.429Z,1016.31
2023-03-03T01:06:31.451Z,1016.31
2023-03-03T01:07:31.482Z,1016.25
2023-03-03T01:08:31.492Z,1016.28
2023-03-03T01:09:31.514Z,1016.27
2023-03-03T01:10:31.533Z,1016.31
2023-03-03T01:11:31.556Z,1016.30
2023-03-03T01:12:31.581Z,1016.38
2023-03-03T01:13:31.622Z,1016.33
2023-03-03T01:14:31.735Z,1016.38
2023-03-03T01:15:31.637Z,1016.41
2023-03-03T01:16:31.674Z,1016.45
2023-03-03T01:17:31.680Z,1016.45
2023-03-03T01:18:31.701Z,1016.49
2023-03-03T01:19:31.722Z,1016.45
2023-03-03T01:20:31.752Z,1016.46
2023-03-03T01:21:31.779Z,1016.43
2023-03-03T01:22:31.785Z,1016.41
2023-03-03T01:23:31.804Z,1016.44
2023-03-03T01:24:31.846Z,1016.45
2023-03-03T01:25:31.850Z,1016.50
2023-03-03T01:26:31.874Z,1016.45
2023-03-03T01:27:31.897Z,1016.48
2023-03-03T01:28:31.936Z,1016.49
2023-03-03T01:29:31.933Z,1016.45
2023-03-03T01:30:31.972Z,1016.47
2023-03-03T01:31:32.040Z,1016.51
2023-03-03T01:32:32.157Z,1016.54
2023-03-03T01:33:32.020Z,1016.47
2023-03-03T01:34:32.041Z,1016.47
2023-03-03T01:35:32.138Z,1016.46
2023-03-03T01:36:32.073Z,1016.48
2023-03-03T01:37:32.095Z,1016.50
2023-03-03T01:38:32.114Z,1016.48
2023-03-03T01:39:32.139Z,1016.51
2023-03-03T01:40:32.197Z,1016.51
2023-03-03T01:41:32.182Z,1016.56
2023-03-03T01:42:32.199Z,1016.53
2023-03-03T01:43:32.239Z,1016.54
2023-03-03T01:44:32.244Z,1016.57
2023-03-03T01:45:32.266Z,1016.53
2023-03-03T01:46:32.381Z,1016.56
2023-03-03T01:47:32.301Z,1016.60
2023-03-03T01:48:32.336Z,1016.56
2023-03-03T01:49:32.347Z,1016.54
2023-03-03T01:50:32.372Z,1016.50
2023-03-03T01:51:32.395Z,1016.52
2023-03-03T01:52:32.404Z,1016.56
2023-03-03T01:53:32.423Z,1016.49
2023-03-03T01:54:32.449Z,1016.52
2023-03-03T01:55:32.464Z,1016.46
2023-03-03T01:56:32.484Z,1016.43
2023-03-03T01:57:32.506Z,1016.51
2023-03-03T01:58:32.525Z,1016.47
2023-03-03T01:59:32.545Z,1016.49
2023-03-03T02:00:32.566Z,1016.51
2023-03-03T02:01:32.615Z,1016.49
2023-03-03T02:02:32.637Z,1016.49
2023-03-03T02:03:32.627Z,1016.47
2023-03-03T02:04:32.655Z,1016.51
2023-03-03T02:05:32.671Z,1016.49
2023-03-03T02:06:32.690Z,1016.52
2023-03-03T02:07:32.710Z,1016.52
2023-03-03T02:08:32.730Z,1016.55
2023-03-03T02:09:32.749Z,1016.56
2023-03-03T02:10:32.772Z,1016.53
2023-03-03T02:11:32.792Z,1016.57
2023-03-03T02:12:32.817Z,1016.54
2023-03-03T02:13:32.836Z,1016.60
2023-03-03T02:14:32.856Z,1016.62
2023-03-03T02:15:32.878Z,1016.66
2023-03-03T02:16:32.976Z,1016.64
2023-03-03T02:17:32.918Z,1016.72
2023-03-03T02:18:32.959Z,1016.68
2023-03-03T02:19:32.958Z,1016.63
2023-03-03T02:20:32.982Z,1016.59
2023-03-03T02:21:33.003Z,1016.58
2023-03-03T02:22:33.021Z,1016.56
2023-03-03T02:23:33.053Z,1016.60
2023-03-03T02:24:33.066Z,1016.61
2023-03-03T02:25:33.082Z,1016.61
2023-03-03T02:26:33.111Z,1016.60
2023-03-03T02:27:33.124Z,1016.62
2023-03-03T02:28:33.144Z,1016.58
2023-03-03T02:29:33.169Z,1016.59
2023-03-03T02:30:33.185Z,1016.57
2023-03-03T02:31:33.290Z,1016.57
2023-03-03T02:32:33.305Z,1016.53
2023-03-03T02:33:33.245Z,1016.58
2023-03-03T02:34:33.288Z,1016.60
2023-03-03T02:35:33.305Z,1016.58
2023-03-03T02:36:33.311Z,1016.64
2023-03-03T02:37:33.326Z,1016.60
2023-03-03T02:38:33.348Z,1016.63
2023-03-03T02:39:33.366Z,1016.61
2023-03-03T02:40:33.395Z,1016.63
2023-03-03T02:41:33.408Z,1016.59
2023-03-03T02:42:33.431Z,1016.61
2023-03-03T02:43:33.451Z,1016.63
2023-03-03T02:44:33.475Z,1016.66
2023-03-03T02:45:33.635Z,1016.61
2023-03-03T02:46:33.520Z,1016.60
2023-03-03T02:47:33.529Z,1016.62
2023-03-03T02:48:33.547Z,1016.61
2023-03-03T02:49:33.568Z,1016.63
2023-03-03T02:50:33.617Z,1016.70
2023-03-03T02:51:33.615Z,1016.72
2023-03-03T02:52:33.626Z,1016.74
2023-03-03T02:53:33.645Z,1016.75
2023-03-03T02:54:33.669Z,1016.76
2023-03-03T02:55:33.686Z,1016.71
2023-03-03T02:56:33.724Z,1016.79
2023-03-03T02:57:33.724Z,1016.77
2023-03-03T02:58:33.743Z,1016.80
2023-03-03T02:59:33.761Z,1016.78
2023-03-03T03:00:33.783Z,1016.73
2023-03-03T03:01:33.802Z,1016.75
2023-03-03T03:02:33.831Z,1016.74
2023-03-03T03:03:33.842Z,1016.73
2023-03-03T03:04:33.897Z,1016.77
2023-03-03T03:05:33.881Z,1016.75
2023-03-03T03:06:33.921Z,1016.77
2023-03-03T03:07:33.930Z,1016.75
2023-03-03T03:08:33.944Z,1016.81
2023-03-03T03:09:33.965Z,1016.82
2023-03-03T03:10:33.984Z,1016.86
2023-03-03T03:11:34.000Z,1016.85
2023-03-03T03:12:34.028Z,1016.80
2023-03-03T03:13:34.044Z,1016.81
2023-03-03T03:14:34.070Z,1016.80
2023-03-03T03:15:34.082Z,1016.83
2023-03-03T03:16:34.178Z,1016.77
2023-03-03T03:17:34.120Z,1016.77
2023-03-03T03:18:34.140Z,1016.81
2023-03-03T03:19:34.163Z,1016.77
2023-03-03T03:20:34.182Z,1016.77
2023-03-03T03:21:34.202Z,1016.74
2023-03-03T03:22:34.243Z,1016.77
2023-03-03T03:23:34.240Z,1016.80
2023-03-03T03:24:34.283Z,1016.77
2023-03-03T03:25:34.282Z,1016.78
2023-03-03T03:26:34.306Z,1016.80
2023-03-03T03:27:34.338Z,1016.85
2023-03-03T03:28:34.438Z,1016.85
2023-03-03T03:29:34.365Z,1016.81
2023-03-03T03:30:34.392Z,1016.85
2023-03-03T03:31:34.400Z,1016.83
2023-03-03T03:32:34.425Z,1016.82
2023-03-03T03:33:34.440Z,1016.88
2023-03-03T03:34:34.462Z,1016.84
2023-03-03T03:35:34.540Z,1016.86
2023-03-03T03:36:34.502Z,1016.82
2023-03-03T03:37:34.521Z,1016.82
2023-03-03T03:38:34.564Z,1016.89
2023-03-03T03:39:34.562Z,1016.87
2023-03-03T03:40:34.586Z,1016.86
2023-03-03T03:41:34.603Z,1016.87
2023-03-03T03:42:34.625Z,1016.94
2023-03-03T03:43:34.641Z,1016.96
2023-03-03T03:44:34.664Z,1016.99
2023-03-03T03:45:34.740Z,1017.03
2023-03-03T03:46:34.702Z,1017.05
2023-03-03T03:47:34.722Z,1017.10
2023-03-03T03:48:34.742Z,1017.07
2023-03-03T03:49:34.762Z,1017.07
2023-03-03T03:50:34.784Z,1017.13
2023-03-03T03:51:34.799Z,1017.11
2023-03-03T03:52:34.826Z,1017.16
2023-03-03T03:53:34.846Z,1017.19
2023-03-03T03:54:34.897Z,1017.10
2023-03-03T03:55:34.886Z,1017.11
2023-03-03T03:56:34.907Z,1017.13
2023-03-03T03:57:34.927Z,1017.05
2023-03-03T03:58:34.955Z,1017.10
2023-03-03T03:59:34.969Z,1017.06
2023-03-03T04:00:34.989Z,1017.08
2023-03-03T04:01:35.020Z,1017.08
2023-03-03T04:02:35.130Z,1017.13
2023-03-03T04:03:35.052Z,1017.19
2023-03-03T04:04:35.070Z,1017.08
2023-03-03T04:05:35.090Z,1017.12
2023-03-03T04:06:35.112Z,1017.07
2023-03-03T04:07:35.141Z,1017.10
2023-03-03T04:08:35.160Z,1017.10
2023-03-03T04:09:35.171Z,1017.08
2023-03-03T04:10:35.213Z,1017.02
2023-03-03T04:11:35.211Z,1017.03
2023-03-03T04:12:35.233Z,1017.05
2023-03-03T04:13:35.389Z,1016.98
2023-03-03T04:14:35.277Z,1017.07
2023-03-03T04:15:35.396Z,1017.02
2023-03-03T04:16:35.318Z,1017.01
2023-03-03T04:17:35.351Z,1017.03
2023-03-03T04:18:35.354Z,1017.08
2023-03-03T04:19:35.372Z,1017.15
2023-03-03T04:20:35.407Z,1017.19
2023-03-03T04:21:35.421Z,1017.15
2023-03-03T04:22:35.436Z,1017.13
2023-03-03T04:23:35.456Z,1017.10
2023-03-03T04:24:35.475Z,1017.10
2023-03-03T04:25:35.502Z,1017.12
2023-03-03T04:26:35.536Z,1017.11
2023-03-03T04:27:35.541Z,1017.10
2023-03-03T04:28:35.559Z,1017.09
2023-03-03T04:29:35.576Z,1017.09
2023-03-03T04:30:35.594Z,1017.09
2023-03-03T04:31:35.626Z,1017.14
2023-03-03T04:32:35.636Z,1017.18
2023-03-03T04:33:35.663Z,1017.24
2023-03-03T04:34:35.675Z,1017.18
2023-03-03T04:35:35.722Z,1017.24
2023-03-03T04:36:35.718Z,1017.30
2023-03-03T04:37:35.743Z,1017.32
2023-03-03T04:38:35.754Z,1017.30
2023-03-03T04:39:35.789Z,1017.28
2023-03-03T04:40:35.797Z,1017.24
2023-03-03T04:41:35.818Z,1017.23
2023-03-03T04:42:35.851Z,1017.18
2023-03-03T04:43:35.858Z,1017.17
2023-03-03T04:44:35.877Z,1017.16
2023-03-03T04:45:35.903Z,1017.15
2023-03-03T04:46:36.016Z,1017.17
2023-03-03T04:47:35.941Z,1017.20
2023-03-03T04:48:35.962Z,1017.25
2023-03-03T04:49:35.980Z,1017.27
2023-03-03T04:50:35.998Z,1017.26
2023-03-03T04:51:36.033Z,1017.27
2023-03-03T04:52:36.041Z,1017.24
2023-03-03T04:53:36.061Z,1017.29
2023-03-03T04:54:36.079Z,1017.32
2023-03-03T04:55:36.100Z,1017.34
2023-03-03T04:56:36.133Z,1017.35
2023-03-03T04:57:36.141Z,1017.33
2023-03-03T04:58:36.175Z,1017.38
2023-03-03T04:59:36.284Z,1017.38
2023-03-03T05:00:36.199Z,1017.35
2023-03-03T05:01:36.276Z,1017.31
2023-03-03T05:02:36.236Z,1017.34
2023-03-03T05:03:36.272Z,1017.33
2023-03-03T05:04:36.336Z,1017.40
2023-03-03T05:05:36.297Z,1017.39
2023-03-03T05:06:36.317Z,1017.39
2023-03-03T05:07:36.337Z,1017.38
2023-03-03T05:08:36.353Z,1017.37
2023-03-03T05:09:36.378Z,1017.37
2023-03-03T05:10:36.395Z,1017.42
2023-03-03T05:11:36.415Z,1017.43
2023-03-03T05:12:36.431Z,1017.39
2023-03-03T05:13:36.461Z,1017.37
2023-03-03T05:14:36.496Z,1017.46
2023-03-03T05:15:36.492Z,1017.46
2023-03-03T05:16:36.516Z,1017.47
2023-03-03T05:17:36.535Z,1017.45
2023-03-03T05:18:36.564Z,1017.51
2023-03-03T05:19:36.577Z,1017.59
2023-03-03T05:20:36.595Z,1017.60
2023-03-03T05:21:37.893Z,1017.60
2023-03-03T05:22:36.647Z,1017.56
2023-03-03T05:23:36.653Z,1017.64
2023-03-03T05:24:36.672Z,1017.61
2023-03-03T05:25:36.695Z,1017.59
2023-03-03T05:26:36.720Z,1017.62
2023-03-03T05:27:36.736Z,1017.57
2023-03-03T05:28:36.753Z,1017.55
2023-03-03T05:29:36.778Z,1017.58
2023-03-03T05:30:36.820Z,1017.55
2023-03-03T05:31:36.949Z,1017.60
2023-03-03T05:32:36.845Z,1017.59
2023-03-03T05:33:36.857Z,1017.63
2023-03-03T05:34:36.876Z,1017.62
2023-03-03T05:35:36.910Z,1017.62
2023-03-03T05:36:36.919Z,1017.62
2023-03-03T05:37:36.945Z,1017.59
2023-03-03T05:38:36.958Z,1017.58
2023-03-03T05:39:36.982Z,1017.60
2023-03-03T05:40:37.000Z,1017.63
2023-03-03T05:41:37.094Z,1017.70
2023-03-03T05:42:37.056Z,1017.66
2023-03-03T05:43:37.061Z,1017.69
2023-03-03T05:44:37.080Z,1017.67
2023-03-03T05:45:37.111Z,1017.68
2023-03-03T05:46:37.163Z,1017.69
2023-03-03T05:47:37.142Z,1017.73
2023-03-03T05:48:37.169Z,1017.77
2023-03-03T05:49:37.185Z,1017.71
2023-03-03T05:50:37.204Z,1017.71
2023-03-03T05:51:37.231Z,1017.73
2023-03-03T05:52:37.245Z,1017.74
2023-03-03T05:53:37.268Z,1017.71
2023-03-03T05:54:37.299Z,1017.76
2023-03-03T05:55:37.315Z,1017.75
2023-03-03T05:56:37.329Z,1017.72
2023-03-03T05:57:37.358Z,1017.71
2023-03-03T05:58:37.372Z,1017.71
2023-03-03T05:59:37.397Z,1017.68
2023-03-03T06:00:37.422Z,1017.73
2023-03-03T06:01:37.473Z,1017.76
2023-03-03T06:02:37.538Z,1017.75
2023-03-03T06:03:37.479Z,1017.70
2023-03-03T06:04:37.498Z,1017.74
2023-03-03T06:05:37.521Z,1017.69
2023-03-03T06:06:37.540Z,1017.69
2023-03-03T06:07:37.564Z,1017.68
2023-03-03T06:08:37.588Z,1017.77
2023-03-03T06:09:37.606Z,1017.71
2023-03-03T06:10:37.628Z,1017.77
2023-03-03T06:11:37.657Z,1017.79
2023-03-03T06:12:37.672Z,1017.80
2023-03-03T06:13:37.689Z,1017.80
2023-03-03T06:14:37.712Z,1017.87
2023-03-03T06:15:37.769Z,1017.89
2023-03-03T06:16:37.808Z,1017.93
2023-03-03T06:17:37.774Z,1017.90
2023-03-03T06:18:37.811Z,1017.87
2023-03-03T06:19:37.817Z,1017.85
2023-03-03T06:20:37.843Z,1017.82
2023-03-03T06:21:37.864Z,1017.80
2023-03-03T06:22:37.885Z,1017.78
2023-03-03T06:23:37.900Z,1017.79
2023-03-03T06:24:37.920Z,1017.80
2023-03-03T06:25:37.962Z,1017.80
2023-03-03T06:26:37.962Z,1017.82
2023-03-03T06:27:37.989Z,1017.85
2023-03-03T06:28:38.004Z,1017.86
2023-03-03T06:29:38.028Z,1017.83
2023-03-03T06:30:38.049Z,1017.85
2023-03-03T06:31:38.129Z,1017.91
2023-03-03T06:32:38.112Z,1017.97
2023-03-03T06:33:38.108Z,1017.90
2023-03-03T06:34:38.145Z,1017.93
2023-03-03T06:35:38.208Z,1017.91
2023-03-03T06:36:38.193Z,1017.96
2023-03-03T06:37:38.200Z,1017.99
2023-03-03T06:38:38.214Z,1018.06
2023-03-03T06:39:38.235Z,1018.00
2023-03-03T06:40:38.256Z,1018.01
2023-03-03T06:41:38.276Z,1018.01
2023-03-03T06:42:38.301Z,1018.01
2023-03-03T06:43:38.317Z,1018.03
2023-03-03T06:44:38.337Z,1018.09
2023-03-03T06:45:38.409Z,1018.13
2023-03-03T06:46:38.380Z,1018.08
2023-03-03T06:47:38.403Z,1018.21
2023-03-03T06:48:38.423Z,1018.22
2023-03-03T06:49:38.445Z,1018.25
2023-03-03T06:50:38.486Z,1018.29
2023-03-03T06:51:38.488Z,1018.25
2023-03-03T06:52:38.510Z,1018.24
2023-03-03T06:53:38.532Z,1018.30
2023-03-03T06:54:38.548Z,1018.28
2023-03-03T06:55:38.577Z,1018.32
2023-03-03T06:56:38.589Z,1018.31
2023-03-03T06:57:38.618Z,1018.36
2023-03-03T06:58:38.633Z,1018.37
2023-03-03T06:59:38.656Z,1018.38
2023-03-03T07:00:38.680Z,1018.42
2023-03-03T07:01:38.719Z,1018.39
2023-03-03T07:02:38.721Z,1018.41
2023-03-03T07:03:38.751Z,1018.44
2023-03-03T07:04:38.763Z,1018.46
2023-03-03T07:05:38.788Z,1018.47
2023-03-03T07:06:38.835Z,1018.49
2023-03-03T07:07:38.833Z,1018.48
2023-03-03T07:08:38.853Z,1018.49
2023-03-03T07:09:38.923Z,1018.48
2023-03-03T07:10:38.905Z,1018.50
2023-03-03T07:11:38.928Z,1018.45
2023-03-03T07:12:38.946Z,1018.50
2023-03-03T07:13:38.966Z,1018.51
2023-03-03T07:14:39.062Z,1018.47
2023-03-03T07:15:39.008Z,1018.48
2023-03-03T07:16:39.051Z,1018.51
2023-03-03T07:17:39.105Z,1018.52
2023-03-03T07:18:39.078Z,1018.49
2023-03-03T07:19:39.094Z,1018.50
2023-03-03T07:20:39.114Z,1018.49
2023-03-03T07:21:39.137Z,1018.52
2023-03-03T07:22:39.182Z,1018.55
2023-03-03T07:23:39.181Z,1018.60
2023-03-03T07:24:39.199Z,1018.61
2023-03-03T07:25:39.225Z,1018.64
2023-03-03T07:26:39.242Z,1018.63
2023-03-03T07:27:39.269Z,1018.66
2023-03-03T07:28:39.300Z,1018.63
2023-03-03T07:29:39.308Z,1018.64
2023-03-03T07:30:39.337Z,1018.60
2023-03-03T07:31:39.364Z,1018.65
2023-03-03T07:32:39.383Z,1018.70
2023-03-03T07:33:39.395Z,1018.65
2023-03-03T07:34:39.414Z,1018.69
2023-03-03T07:35:39.543Z,1018.64
2023-03-03T07:36:39.456Z,1018.66
2023-03-03T07:37:39.479Z,1018.60
2023-03-03T07:38:39.535Z,1018.63
2023-03-03T07:39:40.670Z,1018.66
2023-03-03T07:40:39.550Z,1018.66
2023-03-03T07:41:39.565Z,1018.67
2023-03-03T07:42:39.588Z,1018.72
2023-03-03T07:43:39.612Z,1018.72
2023-03-03T07:44:39.627Z,1018.75
2023-03-03T07:45:39.661Z,1018.79
2023-03-03T07:46:39.669Z,1018.77
2023-03-03T07:47:39.699Z,1018.79
2023-03-03T07:48:39.714Z,1018.78
2023-03-03T07:49:39.736Z,1018.80
2023-03-03T07:50:39.760Z,1018.76
2023-03-03T07:51:39.781Z,1018.76
2023-03-03T07:52:39.802Z,1018.77
2023-03-03T07:53:39.827Z,1018.76
2023-03-03T07:54:39.863Z,1018.75
2023-03-03T07:55:39.867Z,1018.82
2023-03-03T07:56:39.885Z,1018.81
2023-03-03T07:57:40.071Z,1018.85
2023-03-03T07:58:39.928Z,1018.80
2023-03-03T07:59:39.952Z,1018.82
2023-03-03T08:00:40.004Z,1018.86
2023-03-03T08:01:40.069Z,1018.91
2023-03-03T08:02:40.053Z,1018.87
2023-03-03T08:03:40.050Z,1018.95
2023-03-03T08:04:40.303Z,1018.88
2023-03-03T08:05:40.088Z,1018.91
2023-03-03T08:06:40.101Z,1018.96
2023-03-03T08:07:40.124Z,1018.93
2023-03-03T08:08:40.160Z,1018.90
2023-03-03T08:09:40.168Z,1018.89
2023-03-03T08:10:42.395Z,1018.91
2023-03-03T08:11:40.205Z,1018.85
2023-03-03T08:12:40.230Z,1018.86
2023-03-03T08:13:40.251Z,1018.88
2023-03-03T08:14:40.265Z,1018.88
2023-03-03T08:15:40.330Z,1018.88
2023-03-03T08:16:40.305Z,1018.96
2023-03-03T08:17:40.325Z,1018.92
2023-03-03T08:18:40.358Z,1018.97
2023-03-03T08:19:40.375Z,1018.90
2023-03-03T08:20:40.388Z,1018.91
2023-03-03T08:21:40.411Z,1018.96
2023-03-03T08:22:40.438Z,1018.93
2023-03-03T08:23:40.462Z,1018.98
2023-03-03T08:24:40.482Z,1018.97
2023-03-03T08:25:40.496Z,1018.97
2023-03-03T08:26:40.532Z,1019.03
2023-03-03T08:27:40.537Z,1018.96
2023-03-03T08:28:40.557Z,1018.96
2023-03-03T08:29:40.584Z,1019.04
2023-03-03T08:30:40.741Z,1019.09
2023-03-03T08:31:41.989Z,1019.06
2023-03-03T08:32:40.782Z,1019.05
2023-03-03T08:33:40.670Z,1019.12
2023-03-03T08:34:40.686Z,1019.10
2023-03-03T08:35:40.735Z,1019.09
2023-03-03T08:36:40.729Z,1019.11
2023-03-03T08:37:40.756Z,1019.13
2023-03-03T08:38:40.771Z,1019.14
2023-03-03T08:39:40.793Z,1019.17
2023-03-03T08:40:40.815Z,1019.23
2023-03-03T08:41:40.839Z,1019.19
2023-03-03T08:42:40.874Z,1019.16
2023-03-03T08:43:40.886Z,1019.20
2023-03-03T08:44:40.937Z,1019.25
2023-03-03T08:45:40.932Z,1019.23
2023-03-03T08:46:41.003Z,1019.25
2023-03-03T08:47:40.967Z,1019.26
2023-03-03T08:48:40.990Z,1019.25
2023-03-03T08:49:41.019Z,1019.27
2023-03-03T08:50:41.051Z,1019.27
2023-03-03T08:51:41.056Z,1019.28
2023-03-03T08:52:41.078Z,1019.26
2023-03-03T08:53:41.105Z,1019.27
2023-03-03T08:54:41.122Z,1019.29
2023-03-03T08:55:41.142Z,1019.20
2023-03-03T08:56:41.167Z,1019.25
2023-03-03T08:57:41.188Z,1019.31
2023-03-03T08:58:49.901Z,1019.28
2023-03-03T08:59:41.432Z,1019.27
2023-03-03T09:00:41.256Z,1019.27
2023-03-03T09:01:41.323Z,1019.24
2023-03-03T09:02:41.299Z,1019.32
2023-03-03T09:03:41.323Z,1019.30
2023-03-03T09:04:41.360Z,1019.33
2023-03-03T09:05:41.365Z,1019.35
2023-03-03T09:06:41.387Z,1019.33
2023-03-03T09:07:41.411Z,1019.35
2023-03-03T09:08:41.433Z,1019.35
2023-03-03T09:09:41.453Z,1019.33
2023-03-03T09:10:41.476Z,1019.36
2023-03-03T09:11:41.501Z,1019.36
2023-03-03T09:12:41.520Z,1019.45
2023-03-03T09:13:41.541Z,1019.43
2023-03-03T09:14:41.587Z,1019.43
2023-03-03T09:15:41.586Z,1019.44
2023-03-03T09:16:41.627Z,1019.41
2023-03-03T09:17:41.629Z,1019.39
2023-03-03T09:18:41.653Z,1019.42
2023-03-03T09:19:41.679Z,1019.43
2023-03-03T09:20:41.728Z,1019.43
2023-03-03T09:21:41.718Z,1019.47
2023-03-03T09:22:41.740Z,1019.47
2023-03-03T09:23:41.762Z,1019.50
2023-03-03T09:24:41.787Z,1019.45
2023-03-03T09:25:42.350Z,1019.47
2023-03-03T09:26:41.829Z,1019.47
2023-03-03T09:27:41.924Z,1019.52
2023-03-03T09:28:41.873Z,1019.47
2023-03-03T09:29:42.907Z,1019.48
2023-03-03T09:30:41.937Z,1019.45
2023-03-03T09:31:42.012Z,1019.50
2023-03-03T09:32:42.042Z,1019.53
2023-03-03T09:33:41.985Z,1019.47
2023-03-03T09:34:42.008Z,1019.51
2023-03-03T09:35:42.120Z,1019.54
2023-03-03T09:36:42.055Z,1019.54
2023-03-03T09:37:42.072Z,1019.49
2023-03-03T09:38:42.097Z,1019.49
2023-03-03T09:39:42.116Z,1019.51
2023-03-03T09:40:42.142Z,1019.52
2023-03-03T09:41:42.161Z,1019.49
2023-03-03T09:42:42.183Z,1019.51
2023-03-03T09:43:42.210Z,1019.54
2023-03-03T09:44:42.231Z,1019.53
2023-03-03T09:45:42.256Z,1019.53
2023-03-03T09:46:42.361Z,1019.55
2023-03-03T09:47:42.307Z,1019.60
2023-03-03T09:48:42.332Z,1019.57
2023-03-03T09:49:42.341Z,1019.57
2023-03-03T09:50:42.378Z,1019.59
2023-03-03T09:51:42.390Z,1019.64
2023-03-03T09:52:42.410Z,1019.59
2023-03-03T09:53:42.431Z,1019.67
2023-03-03T09:54:42.468Z,1019.67
2023-03-03T09:55:42.568Z,1019.70
2023-03-03T09:56:42.501Z,1019.71
2023-03-03T09:57:42.532Z,1019.71
2023-03-03T09:58:42.541Z,1019.77
2023-03-03T09:59:42.570Z,1019.74
2023-03-03T10:00:42.605Z,1019.82
2023-03-03T10:01:42.611Z,1019.79
2023-03-03T10:02:42.789Z,1019.79
2023-03-03T10:03:42.683Z,1019.71
2023-03-03T10:04:42.683Z,1019.78
2023-03-03T10:05:42.706Z,1019.72
2023-03-03T10:06:42.730Z,1019.68
2023-03-03T10:07:42.752Z,1019.74
2023-03-03T10:08:42.770Z,1019.72
2023-03-03T10:09:42.790Z,1019.74
2023-03-03T10:10:42.814Z,1019.76
2023-03-03T10:11:42.855Z,1019.74
2023-03-03T10:12:42.913Z,1019.73
2023-03-03T10:13:42.887Z,1019.71
2023-03-03T10:14:42.906Z,1019.74
2023-03-03T10:15:42.928Z,1019.76
2023-03-03T10:16:42.984Z,1019.74
2023-03-03T10:17:42.974Z,1019.72
2023-03-03T10:18:43.021Z,1019.71
2023-03-03T10:19:43.017Z,1019.71
2023-03-03T10:20:50.531Z,1019.70
2023-03-03T10:21:43.065Z,1019.73
2023-03-03T10:22:43.087Z,1019.67
2023-03-03T10:23:43.109Z,1019.71
2023-03-03T10:24:43.141Z,1019.68
2023-03-03T10:25:43.166Z,1019.67
2023-03-03T10:26:45.757Z,1019.68
2023-03-03T10:27:43.200Z,1019.64
2023-03-03T10:28:43.228Z,1019.71
2023-03-03T10:29:43.251Z,1019.69
2023-03-03T10:30:58.101Z,1019.70
2023-03-03T10:31:43.337Z,1019.70
2023-03-03T10:32:43.614Z,1019.67
2023-03-03T10:33:43.441Z,1019.69
2023-03-03T10:34:43.384Z,1019.69
2023-03-03T10:35:45.654Z,1019.72
2023-03-03T10:36:43.413Z,1019.69
2023-03-03T10:37:43.430Z,1019.69
2023-03-03T10:38:43.459Z,1019.72
2023-03-03T10:39:43.477Z,1019.70
2023-03-03T10:40:43.499Z,1019.69
2023-03-03T10:41:43.536Z,1019.67
2023-03-03T10:42:45.022Z,1019.76
2023-03-03T10:43:43.572Z,1019.71
2023-03-03T10:44:43.608Z,1019.69
2023-03-03T10:45:43.648Z,1019.64
2023-03-03T10:46:43.641Z,1019.65
2023-03-03T10:47:43.663Z,1019.60
2023-03-03T10:48:43.691Z,1019.69
2023-03-03T10:49:43.713Z,1019.61
2023-03-03T10:50:43.751Z,1019.57
2023-03-03T10:51:43.761Z,1019.61
2023-03-03T10:52:43.799Z,1019.60
2023-03-03T10:53:43.802Z,1019.66
2023-03-03T10:54:43.830Z,1019.61
2023-03-03T10:55:43.853Z,1019.66
2023-03-03T10:56:52.820Z,1019.64
2023-03-03T10:57:43.918Z,1019.65
2023-03-03T10:58:43.974Z,1019.68
2023-03-03T10:59:43.942Z,1019.70
2023-03-03T11:00:43.992Z,1019.66
2023-03-03T11:01:43.991Z,1019.69
2023-03-03T11:02:44.039Z,1019.74
2023-03-03T11:03:44.038Z,1019.74
2023-03-03T11:04:44.119Z,1019.74
2023-03-03T11:05:44.090Z,1019.77
2023-03-03T11:06:44.129Z,1019.75
2023-03-03T11:07:44.134Z,1019.69
2023-03-03T11:08:44.159Z,1019.72
2023-03-03T11:09:44.182Z,1019.74
2023-03-03T11:10:44.204Z,1019.69
2023-03-03T11:11:44.231Z,1019.72
2023-03-03T11:12:44.254Z,1019.77
2023-03-03T11:13:44.278Z,1019.75
2023-03-03T11:14:44.304Z,1019.77
2023-03-03T11:15:44.337Z,1019.77
2023-03-03T11:16:44.610Z,1019.69
2023-03-03T11:17:44.379Z,1019.74
2023-03-03T11:18:44.398Z,1019.73
2023-03-03T11:19:44.420Z,1019.76
2023-03-03T11:20:44.446Z,1019.71
2023-03-03T11:21:44.473Z,1019.72
2023-03-03T11:22:44.545Z,1019.72
2023-03-03T11:23:44.546Z,1019.66
2023-03-03T11:24:44.552Z,1019.65
2023-03-03T11:25:44.569Z,1019.64
2023-03-03T11:26:44.593Z,1019.61
2023-03-03T11:27:44.698Z,1019.61
2023-03-03T11:28:44.640Z,1019.60
2023-03-03T11:29:44.666Z,1019.65
2023-03-03T11:30:44.697Z,1019.65
2023-03-03T11:31:44.719Z,1019.66
2023-03-03T11:32:44.740Z,1019.66
2023-03-03T11:33:44.757Z,1019.68
2023-03-03T11:34:44.793Z,1019.63
2023-03-03T11:35:44.859Z,1019.63
2023-03-03T11:36:44.837Z,1019.63
2023-03-03T11:37:44.858Z,1019.61
2023-03-03T11:38:44.902Z,1019.61
2023-03-03T11:39:44.905Z,1019.57
2023-03-03T11:40:44.931Z,1019.59
2023-03-03T11:41:44.953Z,1019.60
2023-03-03T11:42:44.979Z,1019.58
2023-03-03T11:43:45.003Z,1019.55
2023-03-03T11:44:45.029Z,1019.61
2023-03-03T11:45:45.118Z,1019.56
2023-03-03T11:46:45.076Z,1019.56
2023-03-03T11:47:45.097Z,1019.59
2023-03-03T11:48:45.128Z,1019.57
2023-03-03T11:49:45.148Z,1019.51
2023-03-03T11:50:45.178Z,1019.58
2023-03-03T11:51:45.427Z,1019.53
2023-03-03T11:52:45.223Z,1019.54
2023-03-03T11:53:45.256Z,1019.48
2023-03-03T11:54:45.335Z,1019.51
2023-03-03T11:55:45.290Z,1019.41
2023-03-03T11:56:45.323Z,1019.41
2023-03-03T11:57:45.348Z,1019.39
2023-03-03T11:58:45.366Z,1019.38
2023-03-03T11:59:45.542Z,1019.32
2023-03-03T12:00:45.415Z,1019.34
2023-03-03T12:01:45.438Z,1019.29
2023-03-03T12:02:45.491Z,1019.28
2023-03-03T12:03:45.497Z,1019.24
2023-03-03T12:04:45.520Z,1019.24
2023-03-03T12:05:45.647Z,1019.21
2023-03-03T12:06:45.559Z,1019.22